Terminal Aerodrome Forecast
Issued by NWS

Home | Current Version | Previous Version | Graphics & Text | Print | Product List | Glossary On
Versions: 1 2 3 4 5 6 7 8 9 10 11 12 13 14 15 16 17 18 19 20 21
000
FTUS43 KBIS 110500
TAFJMS
TAF
KJMS 110528Z 1106/1206 18006KT P6SM SKC
     FM110800 23004KT P6SM VCSH FEW025 SCT050
     FM111200 33005KT P6SM FEW080
     FM111800 35009KT P6SM SCT120
     FM120100 36007KT P6SM SCT070 BKN110=

USA.gov is the U.S. government's official web portal to all federal, state and local government web resources and services.